Terminal Aerodrome Forecast
Issued by NWS

Home | Current Version | Previous Version | Text Only | Print | Product List | Glossary Off
Versions: 1 2 3 4 5 6 7 8 9 10 11 12 13 14 15 16 17 18

942
FTUS43 KICT 190731 AAC
TAFCNU
TAF AMD
KCNU 190731Z 1908/2006 17007KT 1SM BR SCT002
      TEMPO 1908/1911 1/2SM FG BKN002
     FM191200 17008KT 4SM BR OVC008
     FM191700 17010KT P6SM OVC014=

USA.gov is the U.S. government's official web portal to all federal, state and local government web resources and services.